Estación meteorológica de Cercs - La Baells (Berguedà, Cercs)

Consulta los datos en tiempo real de la estación meteorológica de Cercs - La Baells





Hora UTC 13:45
Temperatura 34.6 ºC
Humedad 25.6 %
Presión 1021.2 hPa
Pluja 0.0 mm
Velocidad viento 4.6 km/h
Dirección viento ENE

Datos diarios 2026-09-05



Hora UTC (invierno +1h; verano +2h)
DADES NO VALIDADES
Temperatura (ºC) Humedad (%) Presión (hPa) Velocidad viento (km/h) Precipitación (mm)
Hora UTC Aire Humedad Presión Vel. Dir. Vel. Max Dir. Intent. máx 5 min.
00:05 21.3 79.6 1022.2 0.7 NNW 0.7 NNW 0.0
00:10 21.2 78.8 1022.2 0.2 NW 0.7 NNW 0.0
00:15 21.2 78.7 1022.2 0.1 NW 0.7 NNW 0.0
00:20 21.4 76.4 1022.2 0.7 NNW 0.7 NNW 0.0
00:25 21.4 76.0 1022.2 0.8 NNW 0.8 NNW 0.0
00:30 21.1 78.4 1022.2 0.6 NNW 0.8 NNW 0.0
00:35 21.0 78.8 1022.2 0.5 NNW 0.8 NNW 0.0
00:40 21.4 75.8 1022.2 0.3 NW 0.8 NNW 0.0
00:45 21.5 75.2 1022.2 0.3 NW 0.8 NNW 0.0
00:50 21.3 76.0 1022.2 0.4 NNW 0.8 NNW 0.0
00:55 21.2 76.1 1022.2 0.4 NNW 0.8 NNW 0.0
01:00 21.2 75.5 1022.2 0.6 NNW 0.8 NNW 0.0
01:05 21.2 75.3 1022.2 0.7 NNW 0.8 NNW 0.0
01:10 21.1 76.2 1021.3 0.5 NNW 0.8 NNW 0.0
01:15 21.1 76.3 1021.2 0.4 NNW 0.8 NNW 0.0
01:20 21.0 75.8 1022.0 0.4 NNW 0.8 NNW 0.0
01:25 21.0 75.7 1022.2 0.4 NNW 0.8 NNW 0.0
01:30 21.3 73.8 1022.2 0.5 NNW 0.8 NNW 0.0
01:35 21.4 73.5 1022.2 0.6 NNW 0.8 NNW 0.0
01:40 20.7 77.8 1021.4 0.2 NNW 0.8 NNW 0.0
01:45 20.6 78.7 1021.2 0.1 NNW 0.8 NNW 0.0
01:50 20.5 79.9 1021.2 0.1 W 0.8 NNW 0.0
01:55 20.5 80.1 1021.2 0.1 WSW 0.8 NNW 0.0
01:55 20.5 80.1 1021.2 0.1 WSW 0.8 NNW 0.0
01:55 20.5 80.1 1021.2 0.1 WSW 0.8 NNW 0.0
02:15 20.3 78.0 1021.2 1.2 NNW 1.2 NNW 0.0
02:20 20.6 75.3 1021.2 0.7 NNW 1.2 NNW 0.0
02:25 20.7 74.7 1021.2 0.6 NNW 1.2 NNW 0.0
02:30 20.6 73.7 1021.2 0.7 NNW 1.2 NNW 0.0
02:35 20.6 73.5 1021.2 0.7 NNW 1.2 NNW 0.0
02:40 20.6 73.2 1021.2 0.9 NNW 1.2 NNW 0.0
02:45 20.6 73.1 1021.2 1.0 NNW 1.2 NNW 0.0
02:50 20.7 72.5 1021.2 0.8 NNW 1.2 NNW 0.0
02:55 20.7 72.4 1021.2 0.8 NNW 1.2 NNW 0.0
03:00 20.4 74.4 1021.2 0.8 NNW 1.2 NNW 0.0
03:05 20.4 74.9 1021.2 0.8 NNW 1.2 NNW 0.0
03:10 20.2 77.1 1021.2 0.7 NNW 1.2 NNW 0.0
03:15 20.2 77.5 1021.2 0.7 NNW 1.2 NNW 0.0
03:20 20.2 74.1 1021.2 0.7 NNW 1.2 NNW 0.0
03:25 20.2 73.3 1021.2 0.8 NNW 1.2 NNW 0.0
03:30 20.5 69.9 1021.2 0.7 NW 1.2 NNW 0.0
03:35 20.6 69.3 1021.2 0.7 NW 1.2 NNW 0.0
03:40 20.4 72.0 1021.2 0.6 NNW 1.2 NNW 0.0
03:45 20.4 72.6 1021.2 0.6 NNW 1.2 NNW 0.0
03:50 20.1 74.0 1021.2 0.7 NW 1.2 NNW 0.0
03:55 20.0 74.3 1021.2 0.7 NW 1.2 NNW 0.0
04:00 20.0 73.0 1021.2 0.8 NW 1.2 NNW 0.0
04:05 20.0 72.7 1021.2 0.8 NW 1.2 NNW 0.0
04:10 19.9 74.0 1021.2 1.0 NNW 1.2 NNW 0.0
04:15 19.9 74.3 1021.2 1.0 NNW 1.2 NNW 0.0
04:20 19.9 73.0 1021.2 1.0 NNW 1.2 NNW 0.0
04:25 19.9 72.6 1021.2 1.0 NNW 1.2 NNW 0.0
04:30 19.9 73.2 1021.2 0.9 NNW 1.2 NNW 0.0
04:35 19.9 73.3 1021.2 0.9 NNW 1.2 NNW 0.0
04:40 19.7 73.8 1021.2 1.0 NW 1.2 NNW 0.0
04:45 19.7 73.9 1021.2 1.1 NW 1.2 NNW 0.0
04:50 19.8 71.0 1021.2 0.6 NW 1.2 NNW 0.0
04:55 19.8 70.3 1021.2 0.5 NW 1.2 NNW 0.0
05:00 19.7 72.6 1022.0 0.7 NNW 1.2 NNW 0.0
05:05 19.7 73.2 1022.2 0.7 NNW 1.2 NNW 0.0
05:10 19.5 71.6 1022.2 0.9 NNW 1.2 NNW 0.0
05:15 19.5 71.2 1022.2 0.9 NNW 1.2 NNW 0.0
05:20 19.6 70.9 1022.2 0.8 NW 1.2 NNW 0.0
05:25 19.6 70.9 1022.2 0.8 NW 1.2 NNW 0.0
05:30 19.4 74.4 1022.2 0.8 NW 1.2 NNW 0.0
05:35 19.3 75.2 1022.2 0.8 NW 1.2 NNW 0.0
05:40 19.3 71.8 1022.2 1.0 NW 1.2 NNW 0.0
05:45 19.3 70.8 1022.2 1.0 NW 1.2 NNW 0.0
05:50 19.3 70.6 1022.2 0.9 NW 1.2 NNW 0.0
05:55 19.4 70.6 1022.2 0.8 NW 1.2 NNW 0.0
06:00 19.3 70.3 1022.2 1.3 NW 1.3 NW 0.0
06:00 19.3 70.3 1022.2 1.3 NW 1.3 NW 0.0
06:10 19.4 68.5 1022.2 0.6 NW 1.3 NW 0.0
06:15 19.4 68.1 1022.2 0.4 NW 1.3 NW 0.0
06:20 19.4 68.6 1022.2 1.0 NW 1.3 NW 0.0
06:25 19.4 68.7 1022.2 1.1 NW 1.3 NW 0.0
06:30 19.5 72.1 1022.2 1.3 NNW 1.3 NW 0.0
06:35 19.5 73.0 1022.2 1.3 NNW 1.3 NW 0.0
06:40 19.5 72.4 1022.2 1.6 NNW 1.6 NNW 0.0
06:45 19.5 72.3 1022.2 1.7 NNW 1.7 NNW 0.0
06:50 19.9 70.1 1022.2 0.8 NW 1.7 NNW 0.0
06:55 20.1 69.6 1022.2 0.5 NW 1.7 NNW 0.0
07:00 20.2 70.5 1022.2 1.1 NNW 1.7 NNW 0.0
07:05 20.3 70.7 1022.2 1.2 NNW 1.7 NNW 0.0
07:10 20.6 64.0 1022.2 1.5 NNW 1.7 NNW 0.0
07:15 20.7 62.3 1022.2 1.6 NNW 1.7 NNW 0.0
07:20 21.5 60.4 1022.2 1.2 NW 1.7 NNW 0.0
07:25 21.6 60.0 1022.2 1.1 NW 1.7 NNW 0.0
07:30 21.9 57.8 1022.2 1.1 NW 1.7 NNW 0.0
07:35 21.9 57.2 1022.2 1.1 NW 1.7 NNW 0.0
07:40 22.2 56.8 1022.2 0.7 NW 1.7 NNW 0.0
07:45 22.2 56.8 1022.2 0.6 NW 1.7 NNW 0.0
07:50 22.6 55.6 1022.2 0.7 NNW 1.7 NNW 0.0
07:55 22.7 55.4 1022.2 0.7 NNW 1.7 NNW 0.0
08:00 23.4 53.9 1022.2 0.3 NW 1.7 NNW 0.0
08:05 23.6 53.5 1022.2 0.3 NW 1.7 NNW 0.0
08:10 24.3 51.8 1022.2 0.1 WSW 1.7 NNW 0.0
08:15 24.5 51.3 1022.2 0.1 SW 1.7 NNW 0.0
08:20 25.3 49.9 1022.2 0.2 SW 1.7 NNW 0.0
08:25 25.4 49.6 1022.2 0.2 SW 1.7 NNW 0.0
08:30 26.0 48.4 1022.2 0.2 SSW 1.7 NNW 0.0
08:35 26.1 48.1 1022.2 0.1 SSW 1.7 NNW 0.0
08:40 26.8 46.5 1023.0 0.1 WSW 1.7 NNW 0.0
08:45 26.9 46.2 1023.2 0.1 W 1.7 NNW 0.0
08:50 27.4 45.5 1023.2 0.2 SW 1.7 NNW 0.0
08:55 27.5 45.4 1023.2 0.3 SW 1.7 NNW 0.0
09:00 27.5 44.9 1023.2 0.2 SW 1.7 NNW 0.0
09:05 27.6 44.8 1023.2 0.2 SW 1.7 NNW 0.0
09:10 28.1 41.9 1023.2 0.2 SSW 1.7 NNW 0.0
09:15 28.2 41.1 1023.2 0.1 SSW 1.7 NNW 0.0
09:20 28.3 44.0 1023.2 0.1 S 1.7 NNW 0.0
09:25 28.3 44.6 1023.2 0.1 S 1.7 NNW 0.0
09:30 28.4 43.1 1023.2 0.2 SSW 1.7 NNW 0.0
09:35 28.4 42.7 1023.2 0.2 SSW 1.7 NNW 0.0
09:40 29.2 41.5 1023.2 0.1 SSW 1.7 NNW 0.0
09:45 29.3 41.3 1023.2 0.1 SSW 1.7 NNW 0.0
09:50 29.9 39.9 1023.2 0.6 E 1.7 NNW 0.0
09:55 30.0 39.6 1023.2 0.7 ENE 1.7 NNW 0.0
10:00 30.4 37.0 1023.2 2.0 ENE 2.0 ENE 0.0
10:05 30.5 36.4 1023.2 2.2 ENE 2.2 ENE 0.0
10:10 30.5 35.7 1022.4 2.3 ENE 2.3 ENE 0.0
10:15 30.6 35.5 1022.2 2.4 ENE 2.4 ENE 0.0
10:20 30.9 35.2 1022.2 1.5 ENE 2.4 ENE 0.0
10:25 31.0 35.2 1022.2 1.3 ENE 2.4 ENE 0.0
10:30 31.1 34.0 1022.2 2.3 ENE 2.4 ENE 0.0
10:35 31.2 33.7 1022.2 2.6 ENE 2.6 ENE 0.0
10:40 31.1 33.3 1022.2 2.2 ENE 2.6 ENE 0.0
10:45 31.0 33.2 1022.2 2.1 ENE 2.6 ENE 0.0
10:50 31.6 33.1 1022.2 1.5 ENE 2.6 ENE 0.0
10:55 31.7 33.1 1022.2 1.4 ENE 2.6 ENE 0.0
11:00 31.9 33.5 1022.2 1.7 ENE 2.6 ENE 0.0
11:05 32.0 33.5 1022.2 1.7 ENE 2.6 ENE 0.0
11:10 31.8 34.1 1022.2 1.4 ENE 2.6 ENE 0.0
11:15 31.8 34.3 1022.2 1.3 ENE 2.6 ENE 0.0
11:20 31.9 34.4 1022.2 0.6 ENE 2.6 ENE 0.0
11:25 31.9 34.5 1022.2 0.4 ENE 2.6 ENE 0.0
11:30 32.2 33.6 1022.2 1.9 ENE 2.6 ENE 0.0
11:35 32.2 33.4 1022.2 2.3 E 2.6 ENE 0.0
11:40 33.2 31.7 1022.2 1.4 E 2.6 ENE 0.0
11:45 33.4 31.3 1022.2 1.2 E 2.6 ENE 0.0
11:50 33.5 30.7 1022.2 1.6 E 2.6 ENE 0.0
11:55 33.5 30.5 1022.2 1.7 E 2.6 ENE 0.0
12:00 33.4 30.0 1021.4 1.8 ENE 2.6 ENE 0.0
12:05 33.4 29.9 1021.2 1.9 ENE 2.6 ENE 0.0
12:10 33.9 28.5 1021.2 1.1 ESE 2.6 ENE 0.0
12:15 34.0 28.2 1021.2 1.0 ESE 2.6 ENE 0.0
12:20 34.3 27.7 1021.2 1.0 ESE 2.6 ENE 0.0
12:25 34.3 27.5 1021.2 1.0 ESE 2.6 ENE 0.0
12:30 34.3 27.5 1021.2 1.1 ESE 2.6 ENE 0.0
12:35 34.3 27.5 1021.2 1.1 ESE 2.6 ENE 0.0
12:40 34.3 27.7 1021.2 1.1 E 2.6 ENE 0.0
12:45 34.3 27.7 1021.2 1.1 E 2.6 ENE 0.0
12:50 34.3 27.9 1021.2 3.1 ENE 3.1 ENE 0.0
12:55 34.4 28.0 1021.2 3.6 ENE 3.6 ENE 0.0
13:00 34.4 27.9 1021.2 3.2 E 3.6 ENE 0.0
13:05 34.5 27.9 1021.2 3.1 E 3.6 ENE 0.0
13:10 34.4 27.6 1021.2 4.7 E 4.7 E 0.0
13:15 34.4 27.5 1021.2 5.1 E 5.1 E 0.0
13:20 34.6 27.1 1021.2 3.5 ENE 5.1 E 0.0
13:25 34.6 27.1 1021.2 3.1 ENE 5.1 E 0.0
13:30 34.5 26.4 1021.2 3.4 ENE 5.1 E 0.0
13:35 34.4 26.3 1021.2 3.5 ENE 5.1 E 0.0
13:40 34.5 25.8 1021.2 4.4 ENE 5.1 E 0.0
13:45 34.6 25.6 1021.2 4.6 ENE 5.1 E 0.0
Máxima 34.6 80.1 1023.2 5.1 E 5.1 E 0.0
Mínima 19.3 25.6 1021.2
Total 0.0